sensor_id;sensor_type;location;lat;lon;timestamp;pressure;altitude;pressure_sealevel;temperature;humidity
18784;BME280;9520;50.954;6.968;2022-07-29T00:00:20;100893.84;;;28.15;32.64
18784;BME280;9520;50.954;6.968;2022-07-29T00:00:41;100894.19;;;28.10;32.85
18784;BME280;9520;50.954;6.968;2022-07-29T00:01:07;100904.81;;;28.13;32.60
18784;BME280;9520;50.954;6.968;2022-07-29T00:01:40;100898.66;;;28.11;32.86
18784;BME280;9520;50.954;6.968;2022-07-29T00:02:02;100898.75;;;28.10;33.23
18784;BME280;9520;50.954;6.968;2022-07-29T00:02:24;100907.88;;;28.09;33.18
18784;BME280;9520;50.954;6.968;2022-07-29T00:02:46;100896.91;;;28.10;32.56
18784;BME280;9520;50.954;6.968;2022-07-29T00:03:09;100900.59;;;28.09;33.01
18784;BME280;9520;50.954;6.968;2022-07-29T00:03:30;100894.31;;;28.09;32.63
18784;BME280;9520;50.954;6.968;2022-07-29T00:03:52;100898.16;;;28.06;32.73
18784;BME280;9520;50.954;6.968;2022-07-29T00:04:14;100899.16;;;28.05;33.26
18784;BME280;9520;50.954;6.968;2022-07-29T00:04:37;100898.28;;;28.05;33.41
18784;BME280;9520;50.954;6.968;2022-07-29T00:04:59;100897.41;;;28.04;33.27
18784;BME280;9520;50.954;6.968;2022-07-29T00:05:21;100897.41;;;28.04;33.28
18784;BME280;9520;50.954;6.968;2022-07-29T00:05:43;100890.81;;;27.97;33.23
18784;BME280;9520;50.954;6.968;2022-07-29T00:06:05;100899.41;;;28.02;33.62
18784;BME280;9520;50.954;6.968;2022-07-29T00:06:27;100898.41;;;28.03;32.80
18784;BME280;9520;50.954;6.968;2022-07-29T00:06:49;100890.53;;;28.00;32.96
18784;BME280;9520;50.954;6.968;2022-07-29T00:07:11;100892.25;;;28.01;33.18
18784;BME280;9520;50.954;6.968;2022-07-29T00:07:34;100892.97;;;28.03;32.74
18784;BME280;9520;50.954;6.968;2022-07-29T00:07:56;100894.72;;;28.04;33.04
18784;BME280;9520;50.954;6.968;2022-07-29T00:08:18;100900.13;;;28.04;33.03
18784;BME280;9520;50.954;6.968;2022-07-29T00:08:40;100895.69;;;28.03;32.68
18784;BME280;9520;50.954;6.968;2022-07-29T00:09:01;100894.81;;;28.03;33.30
18784;BME280;9520;50.954;6.968;2022-07-29T00:09:24;100898.41;;;28.03;33.30
18784;BME280;9520;50.954;6.968;2022-07-29T00:09:46;100897.41;;;28.04;33.25
18784;BME280;9520;50.954;6.968;2022-07-29T00:10:13;100902.84;;;28.04;32.79
18784;BME280;9520;50.954;6.968;2022-07-29T00:10:35;100893.84;;;28.04;32.93
18784;BME280;9520;50.954;6.968;2022-07-29T00:10:58;100902.84;;;28.04;32.99
18784;BME280;9520;50.954;6.968;2022-07-29T00:11:19;100900.25;;;28.03;33.10
18784;BME280;9520;50.954;6.968;2022-07-29T00:11:41;100903.59;;;28.06;32.96
18784;BME280;9520;50.954;6.968;2022-07-29T00:12:05;100903.59;;;28.06;33.09
18784;BME280;9520;50.954;6.968;2022-07-29T00:12:30;100903.44;;;28.08;33.24
18784;BME280;9520;50.954;6.968;2022-07-29T00:12:52;100893.44;;;28.08;33.36
18784;BME280;9520;50.954;6.968;2022-07-29T00:13:14;100892.59;;;28.08;33.10
18784;BME280;9520;50.954;6.968;2022-07-29T00:13:37;100894.59;;;28.06;32.98
18784;BME280;9520;50.954;6.968;2022-07-29T00:13:59;100896.44;;;28.05;33.16
18784;BME280;9520;50.954;6.968;2022-07-29T00:14:56;100896.94;;;27.99;33.60
18784;BME280;9520;50.954;6.968;2022-07-29T00:15:19;100895.22;;;27.98;33.15
18784;BME280;9520;50.954;6.968;2022-07-29T00:15:41;100890.81;;;27.97;33.32
18784;BME280;9520;50.954;6.968;2022-07-29T00:16:03;100896.22;;;27.97;33.28
18784;BME280;9520;50.954;6.968;2022-07-29T00:16:28;100898.94;;;27.97;33.27
18784;BME280;9520;50.954;6.968;2022-07-29T00:16:49;100894.50;;;27.96;33.15
18784;BME280;9520;50.954;6.968;2022-07-29T00:17:11;100895.38;;;27.97;33.25
18784;BME280;9520;50.954;6.968;2022-07-29T00:17:39;100897.06;;;27.98;33.38
18784;BME280;9520;50.954;6.968;2022-07-29T00:18:02;100901.78;;;27.96;33.27
18784;BME280;9520;50.954;6.968;2022-07-29T00:18:24;100888.94;;;27.98;33.26
18784;BME280;9520;50.954;6.968;2022-07-29T00:18:45;100896.22;;;27.97;33.30
18784;BME280;9520;50.954;6.968;2022-07-29T00:19:07;100895.22;;;27.98;33.91
18784;BME280;9520;50.954;6.968;2022-07-29T00:19:31;100896.09;;;27.99;33.99
18784;BME280;9520;50.954;6.968;2022-07-29T00:19:53;100889.78;;;27.98;33.53
18784;BME280;9520;50.954;6.968;2022-07-29T00:20:15;100887.94;;;27.99;33.49
18784;BME280;9520;50.954;6.968;2022-07-29T00:20:37;100881.06;;;27.95;34.20
18784;BME280;9520;50.954;6.968;2022-07-29T00:21:00;100889.78;;;27.98;33.79
18784;BME280;9520;50.954;6.968;2022-07-29T00:21:21;100889.06;;;27.96;33.53
18784;BME280;9520;50.954;6.968;2022-07-29T00:21:43;100885.50;;;27.96;33.57
18784;BME280;9520;50.954;6.968;2022-07-29T00:22:05;100885.38;;;27.97;33.53
18784;BME280;9520;50.954;6.968;2022-07-29T00:22:27;100888.09;;;27.97;33.76
18784;BME280;9520;50.954;6.968;2022-07-29T00:22:49;100881.66;;;27.98;33.59
18784;BME280;9520;50.954;6.968;2022-07-29T00:23:11;100877.97;;;27.99;33.56
18784;BME280;9520;50.954;6.968;2022-07-29T00:23:34;100883.38;;;27.99;33.64
18784;BME280;9520;50.954;6.968;2022-07-29T00:23:57;100883.66;;;27.96;33.40
18784;BME280;9520;50.954;6.968;2022-07-29T00:24:19;100872.66;;;27.98;33.57
18784;BME280;9520;50.954;6.968;2022-07-29T00:24:40;100882.41;;;28.00;32.95
18784;BME280;9520;50.954;6.968;2022-07-29T00:25:03;100875.53;;;27.96;33.20
18784;BME280;9520;50.954;6.968;2022-07-29T00:25:27;100874.25;;;28.00;33.55
18784;BME280;9520;50.954;6.968;2022-07-29T00:25:49;100880.66;;;27.99;33.54
18784;BME280;9520;50.954;6.968;2022-07-29T00:26:11;100878.94;;;27.98;33.59
18784;BME280;9520;50.954;6.968;2022-07-29T00:26:33;100880.78;;;27.98;33.73
18784;BME280;9520;50.954;6.968;2022-07-29T00:26:55;100875.38;;;27.98;33.71
18784;BME280;9520;50.954;6.968;2022-07-29T00:27:17;100880.94;;;27.96;33.31
18784;BME280;9520;50.954;6.968;2022-07-29T00:27:39;100874.78;;;27.94;33.38
18784;BME280;9520;50.954;6.968;2022-07-29T00:28:01;100870.34;;;27.93;33.89
18784;BME280;9520;50.954;6.968;2022-07-29T00:28:23;100868.38;;;27.95;33.85
18784;BME280;9520;50.954;6.968;2022-07-29T00:28:45;100870.97;;;27.97;33.55
18784;BME280;9520;50.954;6.968;2022-07-29T00:29:07;100874.53;;;27.97;33.52
18784;BME280;9520;50.954;6.968;2022-07-29T00:29:49;100874.53;;;27.97;33.47
18784;BME280;9520;50.954;6.968;2022-07-29T00:30:12;100868.25;;;27.97;33.33
18784;BME280;9520;50.954;6.968;2022-07-29T00:30:34;100876.22;;;27.98;33.27
18784;BME280;9520;50.954;6.968;2022-07-29T00:30:55;100878.94;;;27.98;33.11
18784;BME280;9520;50.954;6.968;2022-07-29T00:31:17;100871.81;;;27.97;33.73
18784;BME280;9520;50.954;6.968;2022-07-29T00:31:41;100871.06;;;27.95;34.16
18784;BME280;9520;50.954;6.968;2022-07-29T00:32:03;100876.50;;;27.95;33.69
18784;BME280;9520;50.954;6.968;2022-07-29T00:32:25;100864.91;;;27.93;33.93
18784;BME280;9520;50.954;6.968;2022-07-29T00:32:47;100871.19;;;27.93;33.23
18784;BME280;9520;50.954;6.968;2022-07-29T00:33:09;100869.47;;;27.92;33.47
18784;BME280;9520;50.954;6.968;2022-07-29T00:33:31;100875.75;;;27.93;33.54
18784;BME280;9520;50.954;6.968;2022-07-29T00:33:53;100873.03;;;27.93;33.28
18784;BME280;9520;50.954;6.968;2022-07-29T00:34:15;100871.34;;;27.92;33.83
18784;BME280;9520;50.954;6.968;2022-07-29T00:34:56;100872.19;;;27.92;33.35
18784;BME280;9520;50.954;6.968;2022-07-29T00:35:36;100873.19;;;27.91;33.54
18784;BME280;9520;50.954;6.968;2022-07-29T00:36:07;100868.88;;;27.89;33.41
18784;BME280;9520;50.954;6.968;2022-07-29T00:36:29;100867.03;;;27.89;33.55
18784;BME280;9520;50.954;6.968;2022-07-29T00:36:51;100870.72;;;27.88;33.36
18784;BME280;9520;50.954;6.968;2022-07-29T00:37:13;100872.44;;;27.89;32.95
18784;BME280;9520;50.954;6.968;2022-07-29T00:37:35;100842.34;;;27.72;33.44
18784;BME280;9520;50.954;6.968;2022-07-29T00:37:57;100871.34;;;27.92;33.58
18784;BME280;9520;50.954;6.968;2022-07-29T00:38:19;100869.63;;;27.91;33.17
18784;BME280;9520;50.954;6.968;2022-07-29T00:38:42;100875.03;;;27.91;32.98
18784;BME280;9520;50.954;6.968;2022-07-29T00:39:06;100876.03;;;27.90;32.91
18784;BME280;9520;50.954;6.968;2022-07-29T00:39:29;100870.59;;;27.90;33.19
18784;BME280;9520;50.954;6.968;2022-07-29T00:39:50;100875.91;;;27.91;33.36
18784;BME280;9520;50.954;6.968;2022-07-29T00:40:13;100874.19;;;27.90;33.52
18784;BME280;9520;50.954;6.968;2022-07-29T00:40:35;100875.75;;;27.93;33.24
18784;BME280;9520;50.954;6.968;2022-07-29T00:41:00;100871.34;;;27.92;33.18
18784;BME280;9520;50.954;6.968;2022-07-29T00:41:22;100870.34;;;27.93;32.99
18784;BME280;9520;50.954;6.968;2022-07-29T00:41:44;100866.03;;;27.90;33.16
18784;BME280;9520;50.954;6.968;2022-07-29T00:42:06;100870.47;;;27.91;33.14
18784;BME280;9520;50.954;6.968;2022-07-29T00:42:28;100870.47;;;27.91;32.43
18784;BME280;9520;50.954;6.968;2022-07-29T00:42:51;100870.47;;;27.91;32.45
18784;BME280;9520;50.954;6.968;2022-07-29T00:43:14;100870.34;;;27.93;32.82
18784;BME280;9520;50.954;6.968;2022-07-29T00:43:36;100867.03;;;27.89;32.86
18784;BME280;9520;50.954;6.968;2022-07-29T00:43:57;100868.63;;;27.92;32.81
18784;BME280;9520;50.954;6.968;2022-07-29T00:44:20;100867.91;;;27.90;32.94
18784;BME280;9520;50.954;6.968;2022-07-29T00:44:42;100867.91;;;27.90;32.78
18784;BME280;9520;50.954;6.968;2022-07-29T00:45:05;100865.06;;;27.91;33.23
18784;BME280;9520;50.954;6.968;2022-07-29T00:45:26;100864.91;;;27.93;32.56
18784;BME280;9520;50.954;6.968;2022-07-29T00:45:49;100871.06;;;27.95;32.67
18784;BME280;9520;50.954;6.968;2022-07-29T00:46:11;100863.22;;;27.92;32.88
18784;BME280;9520;50.954;6.968;2022-07-29T00:46:33;100866.53;;;27.96;33.11
18784;BME280;9520;50.954;6.968;2022-07-29T00:46:56;100866.63;;;27.94;33.39
18784;BME280;9520;50.954;6.968;2022-07-29T00:47:19;100865.94;;;27.92;33.17
18784;BME280;9520;50.954;6.968;2022-07-29T00:47:41;100862.19;;;27.93;33.29
18784;BME280;9520;50.954;6.968;2022-07-29T00:48:03;100865.06;;;27.91;33.12
18784;BME280;9520;50.954;6.968;2022-07-29T00:48:26;100863.06;;;27.93;33.03
18784;BME280;9520;50.954;6.968;2022-07-29T00:48:48;100863.06;;;27.93;33.16
18784;BME280;9520;50.954;6.968;2022-07-29T00:49:10;100869.34;;;27.94;33.01
18784;BME280;9520;50.954;6.968;2022-07-29T00:49:32;100871.06;;;27.95;33.21
18784;BME280;9520;50.954;6.968;2022-07-29T00:49:56;100866.63;;;27.94;33.22
18784;BME280;9520;50.954;6.968;2022-07-29T00:50:18;100861.22;;;27.94;33.23
18784;BME280;9520;50.954;6.968;2022-07-29T00:50:41;100868.63;;;27.92;33.47
18784;BME280;9520;50.954;6.968;2022-07-29T00:51:04;100856.31;;;27.88;33.44
18784;BME280;9520;50.954;6.968;2022-07-29T00:51:27;100853.59;;;27.88;33.10
18784;BME280;9520;50.954;6.968;2022-07-29T00:51:49;100852.59;;;27.89;33.26
18784;BME280;9520;50.954;6.968;2022-07-29T00:52:11;100862.47;;;27.90;33.58
18784;BME280;9520;50.954;6.968;2022-07-29T00:52:39;100853.59;;;27.88;34.00
18784;BME280;9520;50.954;6.968;2022-07-29T00:53:02;100855.47;;;27.87;34.27
18784;BME280;9520;50.954;6.968;2022-07-29T00:53:25;100852.13;;;27.84;34.33
18784;BME280;9520;50.954;6.968;2022-07-29T00:53:48;100851.16;;;27.85;34.23
18784;BME280;9520;50.954;6.968;2022-07-29T00:54:12;100860.28;;;27.84;33.62
18784;BME280;9520;50.954;6.968;2022-07-29T00:54:35;100847.69;;;27.83;33.55
18784;BME280;9520;50.954;6.968;2022-07-29T00:55:07;100860.28;;;27.84;33.84
18784;BME280;9520;50.954;6.968;2022-07-29T00:55:30;100852.28;;;27.82;33.71
18784;BME280;9520;50.954;6.968;2022-07-29T00:55:53;100855.81;;;27.83;33.15
18784;BME280;9520;50.954;6.968;2022-07-29T00:56:15;100850.41;;;27.83;33.15
18784;BME280;9520;50.954;6.968;2022-07-29T00:56:37;100851.28;;;27.83;33.39
18784;BME280;9520;50.954;6.968;2022-07-29T00:56:59;100843.41;;;27.80;33.53
18784;BME280;9520;50.954;6.968;2022-07-29T00:57:22;100850.16;;;27.86;33.14
18784;BME280;9520;50.954;6.968;2022-07-29T00:57:44;100846.47;;;27.87;33.21
18784;BME280;9520;50.954;6.968;2022-07-29T00:58:06;100845.59;;;27.86;33.13
18784;BME280;9520;50.954;6.968;2022-07-29T00:58:29;100847.34;;;27.87;33.13
18784;BME280;9520;50.954;6.968;2022-07-29T00:58:51;100842.75;;;27.88;33.42
18784;BME280;9520;50.954;6.968;2022-07-29T00:59:13;100850.88;;;27.88;33.34
18784;BME280;9520;50.954;6.968;2022-07-29T00:59:35;100850.03;;;27.87;33.56
18784;BME280;9520;50.954;6.968;2022-07-29T00:59:57;100840.41;;;27.83;33.64
18784;BME280;9520;50.954;6.968;2022-07-29T01:00:23;100844.63;;;27.87;33.94
18784;BME280;9520;50.954;6.968;2022-07-29T01:00:45;100846.59;;;27.85;33.58
18784;BME280;9520;50.954;6.968;2022-07-29T01:01:07;100846.47;;;27.87;33.64
18784;BME280;9520;50.954;6.968;2022-07-29T01:01:28;100844.00;;;27.84;33.73
18784;BME280;9520;50.954;6.968;2022-07-29T01:01:51;100843.75;;;27.87;33.58
18784;BME280;9520;50.954;6.968;2022-07-29T01:02:14;100844.88;;;27.84;33.50
18784;BME280;9520;50.954;6.968;2022-07-29T01:02:36;100838.47;;;27.85;33.08
18784;BME280;9520;50.954;6.968;2022-07-29T01:02:58;100842.91;;;27.86;33.00
18784;BME280;9520;50.954;6.968;2022-07-29T01:03:22;100848.16;;;27.88;33.27
18784;BME280;9520;50.954;6.968;2022-07-29T01:03:44;100837.59;;;27.85;33.05
18784;BME280;9520;50.954;6.968;2022-07-29T01:04:06;100841.16;;;27.85;33.70
18784;BME280;9520;50.954;6.968;2022-07-29T01:04:27;100841.16;;;27.85;33.82
18784;BME280;9520;50.954;6.968;2022-07-29T01:04:51;100839.31;;;27.86;33.27
18784;BME280;9520;50.954;6.968;2022-07-29T01:05:15;100842.16;;;27.84;33.28
18784;BME280;9520;50.954;6.968;2022-07-29T01:05:38;100843.88;;;27.85;33.64
18784;BME280;9520;50.954;6.968;2022-07-29T01:06:11;100833.31;;;27.82;33.77
18784;BME280;9520;50.954;6.968;2022-07-29T01:06:34;100838.47;;;27.85;33.88
18784;BME280;9520;50.954;6.968;2022-07-29T01:06:56;100834.00;;;27.84;33.27
18784;BME280;9520;50.954;6.968;2022-07-29T01:07:19;100834.69;;;27.77;33.16
18784;BME280;9520;50.954;6.968;2022-07-29T01:07:41;100824.69;;;27.77;33.16
18784;BME280;9520;50.954;6.968;2022-07-29T01:08:05;100832.44;;;27.82;32.95
18784;BME280;9520;50.954;6.968;2022-07-29T01:08:31;100835.53;;;27.77;33.19
18784;BME280;9520;50.954;6.968;2022-07-29T01:08:56;100838.72;;;27.82;32.96
18784;BME280;9520;50.954;6.968;2022-07-29T01:09:18;100835.75;;;27.85;33.04
18784;BME280;9520;50.954;6.968;2022-07-29T01:10:02;100836.50;;;27.87;33.47
18784;BME280;9520;50.954;6.968;2022-07-29T01:10:25;100836.22;;;27.90;33.46
18784;BME280;9520;50.954;6.968;2022-07-29T01:10:47;100831.78;;;27.89;33.04
18784;BME280;9520;50.954;6.968;2022-07-29T01:11:11;100833.78;;;27.87;33.49
18784;BME280;9520;50.954;6.968;2022-07-29T01:11:35;100831.06;;;27.87;33.71
18784;BME280;9520;50.954;6.968;2022-07-29T01:11:59;100834.50;;;27.89;33.93
18784;BME280;9520;50.954;6.968;2022-07-29T01:12:25;100835.63;;;27.87;34.28
18784;BME280;9520;50.954;6.968;2022-07-29T01:12:49;100837.72;;;27.83;34.13
18784;BME280;9520;50.954;6.968;2022-07-29T01:13:12;100834.88;;;27.85;33.64
18784;BME280;9520;50.954;6.968;2022-07-29T01:13:37;100831.69;;;27.80;33.68
18784;BME280;9520;50.954;6.968;2022-07-29T01:13:59;100837.00;;;27.81;33.82
18784;BME280;9520;50.954;6.968;2022-07-29T01:14:22;100830.72;;;27.81;33.53
18784;BME280;9520;50.954;6.968;2022-07-29T01:14:47;100829.09;;;27.78;33.65
18784;BME280;9520;50.954;6.968;2022-07-29T01:15:11;100826.16;;;27.81;33.42
18784;BME280;9520;50.954;6.968;2022-07-29T01:15:34;100834.13;;;27.83;33.26
18784;BME280;9520;50.954;6.968;2022-07-29T01:16:13;100827.88;;;27.82;33.40
18784;BME280;9520;50.954;6.968;2022-07-29T01:16:42;100829.47;;;27.85;33.42
18784;BME280;9520;50.954;6.968;2022-07-29T01:17:11;100825.03;;;27.84;33.46
18784;BME280;9520;50.954;6.968;2022-07-29T01:17:38;100830.19;;;27.87;33.29
18784;BME280;9520;50.954;6.968;2022-07-29T01:18:16;100831.91;;;27.88;33.23
18784;BME280;9520;50.954;6.968;2022-07-29T01:18:46;100826.47;;;27.88;33.56
18784;BME280;9520;50.954;6.968;2022-07-29T01:19:23;100830.31;;;27.85;33.02
18784;BME280;9520;50.954;6.968;2022-07-29T01:20:02;100828.34;;;27.87;33.26
18784;BME280;9520;50.954;6.968;2022-07-29T01:20:30;100824.78;;;27.87;33.19
18784;BME280;9520;50.954;6.968;2022-07-29T01:21:15;100829.19;;;27.88;33.57
18784;BME280;9520;50.954;6.968;2022-07-29T01:21:50;100830.31;;;27.85;33.73
18784;BME280;9520;50.954;6.968;2022-07-29T01:22:25;100822.47;;;27.82;33.19
18784;BME280;9520;50.954;6.968;2022-07-29T01:23:06;100823.06;;;27.86;33.54
18784;BME280;9520;50.954;6.968;2022-07-29T01:23:51;100825.66;;;27.87;33.74
18784;BME280;9520;50.954;6.968;2022-07-29T01:24:29;100820.22;;;27.87;33.60
18784;BME280;9520;50.954;6.968;2022-07-29T01:25:09;100827.63;;;27.85;33.57
18784;BME280;9520;50.954;6.968;2022-07-29T01:26:47;100827.63;;;27.85;33.59
18784;BME280;9520;50.954;6.968;2022-07-29T01:27:25;100821.31;;;27.85;33.71
18784;BME280;9520;50.954;6.968;2022-07-29T01:28:03;100819.59;;;27.84;33.91
18784;BME280;9520;50.954;6.968;2022-07-29T01:28:52;100822.31;;;27.84;33.65
18784;BME280;9520;50.954;6.968;2022-07-29T01:29:26;100819.59;;;27.84;33.67
18784;BME280;9520;50.954;6.968;2022-07-29T01:30:01;100819.47;;;27.85;33.71
18784;BME280;9520;50.954;6.968;2022-07-29T01:30:27;100814.91;;;27.86;33.48
18784;BME280;9520;50.954;6.968;2022-07-29T01:30:51;100818.50;;;27.86;33.81
18784;BME280;9520;50.954;6.968;2022-07-29T01:31:22;100828.47;;;27.86;33.60
18784;BME280;9520;50.954;6.968;2022-07-29T01:31:50;100813.47;;;27.82;33.90
18784;BME280;9520;50.954;6.968;2022-07-29T01:32:24;100816.88;;;27.84;33.92
18784;BME280;9520;50.954;6.968;2022-07-29T01:32:54;100814.91;;;27.86;33.81
18784;BME280;9520;50.954;6.968;2022-07-29T01:33:17;100819.34;;;27.87;33.90
18784;BME280;9520;50.954;6.968;2022-07-29T01:33:58;100817.63;;;27.86;34.19
18784;BME280;9520;50.954;6.968;2022-07-29T01:34:24;100818.34;;;27.88;34.35
18784;BME280;9520;50.954;6.968;2022-07-29T01:34:53;100824.50;;;27.90;34.37
18784;BME280;9520;50.954;6.968;2022-07-29T01:35:18;100816.25;;;27.91;34.16
18784;BME280;9520;50.954;6.968;2022-07-29T01:35:42;100808.50;;;27.87;33.96
18784;BME280;9520;50.954;6.968;2022-07-29T01:36:10;100815.38;;;27.91;33.56
18784;BME280;9520;50.954;6.968;2022-07-29T01:36:36;100807.50;;;27.88;33.70
18784;BME280;9520;50.954;6.968;2022-07-29T01:37:06;100820.66;;;27.92;34.01
18784;BME280;9520;50.954;6.968;2022-07-29T01:37:36;100820.81;;;27.91;33.91
18784;BME280;9520;50.954;6.968;2022-07-29T01:38:05;100817.13;;;27.92;33.78
18784;BME280;9520;50.954;6.968;2022-07-29T01:38:29;100820.66;;;27.92;33.75
18784;BME280;9520;50.954;6.968;2022-07-29T01:38:57;100815.97;;;27.95;34.02
18784;BME280;9520;50.954;6.968;2022-07-29T01:39:26;100822.25;;;27.95;33.81
18784;BME280;9520;50.954;6.968;2022-07-29T01:39:49;100817.81;;;27.94;33.55
18784;BME280;9520;50.954;6.968;2022-07-29T01:40:19;100821.66;;;27.91;33.81
18784;BME280;9520;50.954;6.968;2022-07-29T01:40:46;100817.94;;;27.92;33.84
18784;BME280;9520;50.954;6.968;2022-07-29T01:41:12;100817.22;;;27.90;33.95
18784;BME280;9520;50.954;6.968;2022-07-29T01:41:40;100817.22;;;27.90;33.66
18784;BME280;9520;50.954;6.968;2022-07-29T01:42:12;100820.94;;;27.89;33.33
18784;BME280;9520;50.954;6.968;2022-07-29T01:42:40;100816.50;;;27.88;33.79
18784;BME280;9520;50.954;6.968;2022-07-29T01:43:11;100812.91;;;27.88;33.61
18784;BME280;9520;50.954;6.968;2022-07-29T01:43:38;100815.63;;;27.88;33.50
18784;BME280;9520;50.954;6.968;2022-07-29T01:44:10;100807.50;;;27.88;34.04
18784;BME280;9520;50.954;6.968;2022-07-29T01:44:37;100811.94;;;27.89;33.92
18784;BME280;9520;50.954;6.968;2022-07-29T01:45:05;100814.63;;;27.89;33.77
18784;BME280;9520;50.954;6.968;2022-07-29T01:45:37;100810.09;;;27.89;33.86
18784;BME280;9520;50.954;6.968;2022-07-29T01:46:02;100810.19;;;27.88;33.72
18784;BME280;9520;50.954;6.968;2022-07-29T01:46:30;100813.66;;;27.90;33.92
18784;BME280;9520;50.954;6.968;2022-07-29T01:46:56;100800.22;;;27.88;33.83
18784;BME280;9520;50.954;6.968;2022-07-29T01:47:23;100808.22;;;27.90;33.56
18784;BME280;9520;50.954;6.968;2022-07-29T01:47:52;100814.53;;;27.90;33.92
18784;BME280;9520;50.954;6.968;2022-07-29T01:48:19;100812.69;;;27.91;33.64
18784;BME280;9520;50.954;6.968;2022-07-29T01:48:46;100807.38;;;27.89;33.86
18784;BME280;9520;50.954;6.968;2022-07-29T01:49:11;100801.81;;;27.91;33.53
18784;BME280;9520;50.954;6.968;2022-07-29T01:49:36;100802.94;;;27.88;33.59
18784;BME280;9520;50.954;6.968;2022-07-29T01:50:05;100804.78;;;27.88;33.64
18784;BME280;9520;50.954;6.968;2022-07-29T01:50:33;100806.66;;;27.87;33.70
18784;BME280;9520;50.954;6.968;2022-07-29T01:50:58;100812.19;;;27.86;34.00
18784;BME280;9520;50.954;6.968;2022-07-29T01:51:25;100810.34;;;27.86;34.03
18784;BME280;9520;50.954;6.968;2022-07-29T01:51:53;100805.91;;;27.85;33.72
18784;BME280;9520;50.954;6.968;2022-07-29T01:52:21;100800.63;;;27.84;33.79
18784;BME280;9520;50.954;6.968;2022-07-29T01:52:46;100806.78;;;27.86;34.03
18784;BME280;9520;50.954;6.968;2022-07-29T01:53:12;100805.19;;;27.83;34.00
18784;BME280;9520;50.954;6.968;2022-07-29T01:53:43;100807.03;;;27.83;33.81
18784;BME280;9520;50.954;6.968;2022-07-29T01:54:12;100810.59;;;27.83;34.12
18784;BME280;9520;50.954;6.968;2022-07-29T01:54:37;100806.03;;;27.84;34.12
18784;BME280;9520;50.954;6.968;2022-07-29T01:55:10;100807.88;;;27.83;33.68
18784;BME280;9520;50.954;6.968;2022-07-29T01:55:36;100810.00;;;27.80;34.04
18784;BME280;9520;50.954;6.968;2022-07-29T01:56:02;100812.44;;;27.83;33.58
18784;BME280;9520;50.954;6.968;2022-07-29T01:56:26;100809.72;;;27.83;33.90
18784;BME280;9520;50.954;6.968;2022-07-29T01:56:51;100805.31;;;27.82;34.13
18784;BME280;9520;50.954;6.968;2022-07-29T01:57:17;100814.56;;;27.79;34.17
18784;BME280;9520;50.954;6.968;2022-07-29T01:57:43;100810.00;;;27.80;33.86
18784;BME280;9520;50.954;6.968;2022-07-29T01:58:06;100809.03;;;27.81;34.33
18784;BME280;9520;50.954;6.968;2022-07-29T01:58:29;100810.75;;;27.82;34.17
18784;BME280;9520;50.954;6.968;2022-07-29T01:58:53;100805.56;;;27.79;34.11
18784;BME280;9520;50.954;6.968;2022-07-29T01:59:17;100812.72;;;27.80;33.92
18784;BME280;9520;50.954;6.968;2022-07-29T01:59:43;100811.00;;;27.79;34.36
18784;BME280;9520;50.954;6.968;2022-07-29T02:00:07;100808.44;;;27.77;34.15
18784;BME280;9520;50.954;6.968;2022-07-29T02:00:33;100807.56;;;27.77;34.76
18784;BME280;9520;50.954;6.968;2022-07-29T02:00:56;100806.06;;;27.73;34.24
18784;BME280;9520;50.954;6.968;2022-07-29T02:01:21;100811.50;;;27.73;34.39
18784;BME280;9520;50.954;6.968;2022-07-29T02:01:47;100804.63;;;27.69;34.56
18784;BME280;9520;50.954;6.968;2022-07-29T02:02:11;100811.78;;;27.70;34.39
18784;BME280;9520;50.954;6.968;2022-07-29T02:02:35;100811.91;;;27.68;34.25
18784;BME280;9520;50.954;6.968;2022-07-29T02:03:02;100810.91;;;27.69;34.47
18784;BME280;9520;50.954;6.968;2022-07-29T02:03:27;100809.19;;;27.68;34.42
18784;BME280;9520;50.954;6.968;2022-07-29T02:03:50;100810.31;;;27.66;34.55
18784;BME280;9520;50.954;6.968;2022-07-29T02:04:15;100808.59;;;27.65;34.69
18784;BME280;9520;50.954;6.968;2022-07-29T02:04:51;100813.16;;;27.64;34.24
18784;BME280;9520;50.954;6.968;2022-07-29T02:05:17;100819.44;;;27.65;34.21
18784;BME280;9520;50.954;6.968;2022-07-29T02:05:42;100819.44;;;27.65;34.58
18784;BME280;9520;50.954;6.968;2022-07-29T02:06:07;100811.19;;;27.66;34.44
18784;BME280;9520;50.954;6.968;2022-07-29T02:06:32;100807.72;;;27.64;34.40
18784;BME280;9520;50.954;6.968;2022-07-29T02:06:58;100805.16;;;27.63;34.07
18784;BME280;9520;50.954;6.968;2022-07-29T02:07:23;100814.28;;;27.62;34.33
18784;BME280;9520;50.954;6.968;2022-07-29T02:07:47;100813.31;;;27.63;34.02
18784;BME280;9520;50.954;6.968;2022-07-29T02:08:10;100807.88;;;27.63;33.95
18784;BME280;9520;50.954;6.968;2022-07-29T02:08:36;100810.59;;;27.63;34.37
18784;BME280;9520;50.954;6.968;2022-07-29T02:09:00;100810.44;;;27.64;34.24
18784;BME280;9520;50.954;6.968;2022-07-29T02:09:25;100815.00;;;27.64;34.48
18784;BME280;9520;50.954;6.968;2022-07-29T02:09:49;100805.16;;;27.63;34.31
18784;BME280;9520;50.954;6.968;2022-07-29T02:10:13;100808.84;;;27.62;34.38
18784;BME280;9520;50.954;6.968;2022-07-29T02:10:37;100812.56;;;27.61;34.59
18784;BME280;9520;50.954;6.968;2022-07-29T02:11:03;100803.56;;;27.60;34.47
18784;BME280;9520;50.954;6.968;2022-07-29T02:11:26;100806.16;;;27.62;34.71
18784;BME280;9520;50.954;6.968;2022-07-29T02:11:53;100800.72;;;27.62;34.44
18784;BME280;9520;50.954;6.968;2022-07-29T02:12:17;100801.59;;;27.62;34.16
18784;BME280;9520;50.954;6.968;2022-07-29T02:12:40;100800.84;;;27.60;34.29
18784;BME280;9520;50.954;6.968;2022-07-29T02:13:12;100805.00;;;27.64;33.94
18784;BME280;9520;50.954;6.968;2022-07-29T02:13:36;100801.44;;;27.64;34.37
18784;BME280;9520;50.954;6.968;2022-07-29T02:14:00;100798.72;;;27.64;34.21
18784;BME280;9520;50.954;6.968;2022-07-29T02:14:24;100805.00;;;27.64;34.02
18784;BME280;9520;50.954;6.968;2022-07-29T02:14:53;100792.59;;;27.62;34.31
18784;BME280;9520;50.954;6.968;2022-07-29T02:15:16;100801.44;;;27.64;34.39